createdAt,value
2023-03-26T00:00:41.216Z,6.8897
2023-03-26T00:01:43.439Z,6.8991
2023-03-26T00:02:45.659Z,6.9074
2023-03-26T00:03:47.770Z,6.9130
2023-03-26T00:04:49.935Z,6.9187
2023-03-26T00:05:52.352Z,6.9264
2023-03-26T00:06:54.729Z,6.9319
2023-03-26T00:07:56.906Z,6.9378
2023-03-26T00:08:59.056Z,6.9411
2023-03-26T00:10:01.439Z,6.9451
2023-03-26T00:12:05.660Z,6.9529
2023-03-26T00:13:07.779Z,6.9573
2023-03-26T00:14:09.979Z,6.9619
2023-03-26T00:15:12.068Z,6.9691
2023-03-26T00:16:14.264Z,6.9759
2023-03-26T00:17:16.452Z,6.9813
2023-03-26T00:18:18.612Z,6.9891
2023-03-26T00:19:20.787Z,6.9981
2023-03-26T00:21:25.023Z,7.0204
2023-03-26T00:22:27.232Z,7.0315
2023-03-26T00:23:29.385Z,7.0428
2023-03-26T00:24:31.547Z,7.0529
2023-03-26T00:25:33.730Z,7.0619
2023-03-26T00:27:37.906Z,7.0722
2023-03-26T00:28:40.134Z,7.0760
2023-03-26T00:29:42.240Z,7.0791
2023-03-26T00:30:44.421Z,7.0813
2023-03-26T00:31:46.791Z,7.0815
2023-03-26T00:32:53.327Z,7.0820
2023-03-26T00:33:52.684Z,7.0828
2023-03-26T00:34:54.805Z,7.0821
2023-03-26T00:35:57.126Z,7.0812
2023-03-26T00:36:59.475Z,7.0820
2023-03-26T00:38:01.655Z,7.0830
2023-03-26T00:39:03.813Z,7.0863
2023-03-26T00:40:05.995Z,7.0880
2023-03-26T00:41:08.181Z,7.0888
2023-03-26T00:42:10.390Z,7.0879
2023-03-26T00:43:12.547Z,7.0865
2023-03-26T00:44:14.711Z,7.0849
2023-03-26T00:45:16.885Z,7.0822
2023-03-26T00:46:19.128Z,7.0803
2023-03-26T00:47:21.304Z,7.0763
2023-03-26T00:48:31.576Z,7.0703
2023-03-26T00:49:27.221Z,7.0620
2023-03-26T00:50:29.376Z,7.0560
2023-03-26T00:51:31.574Z,7.0493
2023-03-26T00:52:33.769Z,7.0444
2023-03-26T00:54:38.098Z,7.0365
2023-03-26T00:55:40.296Z,7.0335
2023-03-26T00:56:42.425Z,7.0303
2023-03-26T00:57:44.559Z,7.0268
2023-03-26T00:58:46.697Z,7.0201
2023-03-26T00:59:48.877Z,7.0134
2023-03-26T01:00:50.984Z,7.0042
2023-03-26T01:02:55.270Z,6.9831
2023-03-26T01:04:07.601Z,6.9734
2023-03-26T01:05:01.131Z,6.9625
2023-03-26T01:06:03.325Z,6.9553
2023-03-26T01:07:05.476Z,6.9467
2023-03-26T01:08:07.661Z,6.9383
2023-03-26T01:09:09.827Z,6.9293
2023-03-26T01:11:14.207Z,6.9141
2023-03-26T01:12:16.616Z,6.9067
2023-03-26T01:13:18.753Z,6.8989
2023-03-26T01:14:20.947Z,6.8874
2023-03-26T01:15:23.103Z,6.8727
2023-03-26T01:16:25.306Z,6.8581
2023-03-26T01:17:27.469Z,6.8395
2023-03-26T01:18:29.705Z,6.8184
2023-03-26T01:19:31.838Z,6.7963
2023-03-26T01:20:33.961Z,6.7715
2023-03-26T01:21:36.103Z,6.7452
2023-03-26T01:22:38.275Z,6.7165
2023-03-26T01:23:40.352Z,6.6906
2023-03-26T01:24:42.564Z,6.6665
2023-03-26T01:25:44.703Z,6.6415
2023-03-26T01:26:46.896Z,6.6123
2023-03-26T01:27:49.003Z,6.5846
2023-03-26T01:28:51.223Z,6.5570
2023-03-26T01:29:53.336Z,6.5313
2023-03-26T01:30:55.529Z,6.5051
2023-03-26T01:31:57.664Z,6.4784
2023-03-26T01:32:59.912Z,6.4484
2023-03-26T01:34:02.090Z,6.4194
2023-03-26T01:35:04.268Z,6.3875
2023-03-26T01:36:06.449Z,6.3593
2023-03-26T01:37:08.724Z,6.3314
2023-03-26T01:38:11.067Z,6.3036
2023-03-26T01:39:13.729Z,6.2749
2023-03-26T01:40:15.884Z,6.2531
2023-03-26T01:41:18.114Z,6.2325
2023-03-26T01:42:20.311Z,6.2127
2023-03-26T01:43:22.517Z,6.1981
2023-03-26T01:44:24.691Z,6.1856
2023-03-26T01:45:26.914Z,6.1755
2023-03-26T01:46:29.200Z,6.1655
2023-03-26T01:47:31.362Z,6.1563
2023-03-26T01:48:33.495Z,6.1469
2023-03-26T01:49:35.734Z,6.1399
2023-03-26T01:50:37.927Z,6.1347
2023-03-26T01:51:40.273Z,6.1301
2023-03-26T01:52:42.484Z,6.1292
2023-03-26T01:53:44.665Z,6.1279
2023-03-26T01:54:46.894Z,6.1269
2023-03-26T01:55:49.046Z,6.1275
2023-03-26T01:56:51.297Z,6.1264
2023-03-26T01:57:53.460Z,6.1259
2023-03-26T01:58:55.659Z,6.1211
2023-03-26T01:59:57.882Z,6.1167
2023-03-26T02:01:00.038Z,6.1065
2023-03-26T02:02:02.331Z,6.0899
2023-03-26T02:03:04.564Z,6.0715
2023-03-26T02:04:06.864Z,6.0505
2023-03-26T02:06:11.078Z,6.0150
2023-03-26T02:07:13.267Z,6.0063
2023-03-26T02:11:23.220Z,6.0035
2023-03-26T02:13:27.744Z,6.0153
2023-03-26T02:14:29.949Z,6.0274
2023-03-26T02:15:32.131Z,6.0411
2023-03-26T02:16:34.374Z,6.0541
2023-03-26T02:17:36.623Z,6.0643
2023-03-26T02:18:38.888Z,6.0727
2023-03-26T02:20:43.071Z,6.0821
2023-03-26T02:21:45.252Z,6.0843
2023-03-26T02:22:47.480Z,6.0855
2023-03-26T02:23:49.694Z,6.0921
2023-03-26T02:24:51.878Z,6.0968
2023-03-26T02:25:54.154Z,6.1011
2023-03-26T02:26:56.711Z,6.1049
2023-03-26T02:27:58.919Z,6.1072
2023-03-26T02:29:01.174Z,6.1089
2023-03-26T02:30:03.394Z,6.1135
2023-03-26T02:31:05.632Z,6.1198
2023-03-26T02:32:07.823Z,6.1267
2023-03-26T02:33:10.072Z,6.1329
2023-03-26T02:34:12.256Z,6.1391
2023-03-26T02:35:14.551Z,6.1439
2023-03-26T02:36:16.883Z,6.1484
2023-03-26T02:37:19.139Z,6.1517
2023-03-26T02:38:21.364Z,6.1549
2023-03-26T02:39:23.812Z,6.1568
2023-03-26T02:40:25.989Z,6.1572
2023-03-26T02:41:28.219Z,6.1557
2023-03-26T02:42:30.405Z,6.1549
2023-03-26T02:43:32.603Z,6.1565
2023-03-26T02:45:36.954Z,6.1617
2023-03-26T02:46:39.182Z,6.1659
2023-03-26T02:47:41.425Z,6.1713
2023-03-26T02:48:43.623Z,6.1785
2023-03-26T02:49:45.896Z,6.1839
2023-03-26T02:50:48.052Z,6.1908
2023-03-26T02:51:50.275Z,6.1996
2023-03-26T02:52:52.433Z,6.2066
2023-03-26T02:53:54.667Z,6.2102
2023-03-26T02:54:56.864Z,6.2133
2023-03-26T02:57:01.176Z,6.2255
2023-03-26T02:58:03.390Z,6.2348
2023-03-26T02:59:05.630Z,6.2457
2023-03-26T03:00:07.867Z,6.2536
2023-03-26T03:01:10.090Z,6.2615
2023-03-26T03:02:12.308Z,6.2689
2023-03-26T03:03:14.460Z,6.2716
2023-03-26T03:04:16.731Z,6.2786
2023-03-26T03:05:18.965Z,6.2858
2023-03-26T03:06:21.133Z,6.2933
2023-03-26T03:07:23.396Z,6.3023
2023-03-26T03:08:25.623Z,6.3076
2023-03-26T03:09:27.791Z,6.3149
2023-03-26T03:10:29.940Z,6.3196
2023-03-26T03:11:32.187Z,6.3219
2023-03-26T03:12:34.389Z,6.3245
2023-03-26T03:13:36.568Z,6.3268
2023-03-26T03:14:38.745Z,6.3294
2023-03-26T03:15:40.930Z,6.3293
2023-03-26T03:16:43.158Z,6.3303
2023-03-26T03:17:45.423Z,6.3281
2023-03-26T03:18:47.595Z,6.3262
2023-03-26T03:19:49.750Z,6.3248
2023-03-26T03:20:51.986Z,6.3252
2023-03-26T03:21:54.163Z,6.3241
2023-03-26T03:22:56.466Z,6.3236
2023-03-26T03:24:00.071Z,6.3210
2023-03-26T03:25:02.712Z,6.3178
2023-03-26T03:26:04.941Z,6.3133
2023-03-26T03:27:07.127Z,6.3066
2023-03-26T03:28:09.274Z,6.3004
2023-03-26T03:29:11.503Z,6.2934
2023-03-26T03:30:13.735Z,6.2869
2023-03-26T03:31:15.936Z,6.2789
2023-03-26T03:32:18.132Z,6.2694
2023-03-26T03:33:20.331Z,6.2607
2023-03-26T03:34:22.517Z,6.2509
2023-03-26T03:35:24.805Z,6.2392
2023-03-26T03:36:27.051Z,6.2261
2023-03-26T03:37:29.221Z,6.2100
2023-03-26T03:38:31.422Z,6.1969
2023-03-26T03:39:33.675Z,6.1859
2023-03-26T03:40:35.856Z,6.1756
2023-03-26T03:41:38.069Z,6.1618
2023-03-26T03:42:40.310Z,6.1493
2023-03-26T03:44:44.702Z,6.1198
2023-03-26T03:45:46.956Z,6.1026
2023-03-26T03:46:49.200Z,6.0892
2023-03-26T03:47:51.406Z,6.0764
2023-03-26T03:48:53.580Z,6.0664
2023-03-26T03:49:55.855Z,6.0570
2023-03-26T03:50:58.112Z,6.0487
2023-03-26T03:52:00.370Z,6.0433
2023-03-26T03:53:02.577Z,6.0375
2023-03-26T03:54:04.797Z,6.0345
2023-03-26T03:55:06.994Z,6.0300
2023-03-26T03:56:09.155Z,6.0261
2023-03-26T03:57:11.502Z,6.0223
2023-03-26T03:58:13.666Z,6.0195
2023-03-26T03:59:15.863Z,6.0157
2023-03-26T04:00:18.179Z,6.0138
2023-03-26T04:01:20.350Z,6.0125
2023-03-26T04:02:22.618Z,6.0105
2023-03-26T04:03:33.489Z,6.0067
2023-03-26T04:04:28.516Z,6.0038
2023-03-26T04:05:30.702Z,6.0024
2023-03-26T04:06:32.893Z,6.0014
2023-03-26T04:07:35.063Z,6.0008
2023-03-26T04:08:37.275Z,5.9999
2023-03-26T04:09:39.503Z,5.9996
2023-03-26T04:13:47.857Z,6.0014
2023-03-26T04:14:50.076Z,6.0030
2023-03-26T04:15:52.425Z,6.0063
2023-03-26T04:17:56.878Z,6.0085
2023-03-26T04:18:59.114Z,6.0078
2023-03-26T04:20:01.293Z,6.0078
2023-03-26T04:21:03.500Z,6.0090
2023-03-26T04:22:05.699Z,6.0100
2023-03-26T04:23:07.916Z,6.0090
2023-03-26T04:24:10.122Z,6.0103
2023-03-26T04:25:12.260Z,6.0097
2023-03-26T04:26:14.515Z,6.0089
2023-03-26T04:27:16.653Z,6.0100
2023-03-26T04:28:18.887Z,6.0114
2023-03-26T04:29:21.082Z,6.0127
2023-03-26T04:30:23.285Z,6.0146
2023-03-26T04:31:25.446Z,6.0162
2023-03-26T04:32:27.689Z,6.0171
2023-03-26T04:33:29.837Z,6.0149
2023-03-26T04:35:34.147Z,6.0074
2023-03-26T04:36:36.281Z,6.0075
2023-03-26T04:37:38.485Z,6.0080
2023-03-26T04:38:40.700Z,6.0046
2023-03-26T04:39:42.863Z,6.0002
2023-03-26T04:40:45.101Z,5.9959
2023-03-26T04:41:47.358Z,5.9941
2023-03-26T04:42:49.606Z,5.9935
2023-03-26T04:44:53.842Z,5.9902
2023-03-26T04:45:56.125Z,5.9868
2023-03-26T04:46:58.635Z,5.9870
2023-03-26T04:48:00.881Z,5.9859
2023-03-26T04:49:03.184Z,5.9849
2023-03-26T04:50:05.404Z,5.9866
2023-03-26T04:51:07.658Z,5.9852
2023-03-26T04:52:09.865Z,5.9826
2023-03-26T04:53:12.033Z,5.9815
2023-03-26T04:54:14.264Z,5.9789
2023-03-26T04:56:18.509Z,5.9766
2023-03-26T04:57:20.686Z,5.9745
2023-03-26T04:58:22.873Z,5.9721
2023-03-26T04:59:25.081Z,5.9697
2023-03-26T05:00:27.269Z,5.9675
2023-03-26T05:01:29.533Z,5.9668
2023-03-26T05:02:31.830Z,5.9674
2023-03-26T05:03:34.050Z,5.9668
2023-03-26T05:04:36.274Z,5.9629
2023-03-26T05:05:38.492Z,5.9560
2023-03-26T05:06:40.675Z,5.9497
2023-03-26T05:07:42.906Z,5.9460
2023-03-26T05:08:45.079Z,5.9427
2023-03-26T05:09:47.308Z,5.9377
2023-03-26T05:10:49.460Z,5.9326
2023-03-26T05:12:53.686Z,5.9260
2023-03-26T05:13:55.892Z,5.9258
2023-03-26T05:14:58.099Z,5.9261
2023-03-26T05:16:00.282Z,5.9274
2023-03-26T05:17:02.508Z,5.9300
2023-03-26T05:18:04.722Z,5.9330
2023-03-26T05:21:11.074Z,5.9439
2023-03-26T05:22:13.273Z,5.9452
2023-03-26T05:23:15.518Z,5.9468
2023-03-26T05:24:17.631Z,5.9498
2023-03-26T05:25:19.900Z,5.9516
2023-03-26T05:26:22.148Z,5.9516
2023-03-26T05:27:24.327Z,5.9489
2023-03-26T05:28:26.546Z,5.9463
2023-03-26T05:29:28.799Z,5.9464
2023-03-26T05:30:30.994Z,5.9469
2023-03-26T05:31:33.182Z,5.9477
2023-03-26T05:32:35.392Z,5.9497
2023-03-26T05:33:37.751Z,5.9504
2023-03-26T05:34:40.016Z,5.9491
2023-03-26T05:35:42.281Z,5.9463
2023-03-26T05:36:44.442Z,5.9457
2023-03-26T05:37:46.653Z,5.9468
2023-03-26T05:38:48.819Z,5.9442
2023-03-26T05:39:51.056Z,5.9405
2023-03-26T05:40:53.595Z,5.9371
2023-03-26T05:41:55.994Z,5.9362
2023-03-26T05:44:00.224Z,5.9397
2023-03-26T05:45:02.445Z,5.9435
2023-03-26T05:46:04.647Z,5.9491
2023-03-26T05:47:06.872Z,5.9552
2023-03-26T05:48:09.051Z,5.9614
2023-03-26T05:49:11.266Z,5.9701
2023-03-26T05:50:13.431Z,5.9779
2023-03-26T05:51:15.701Z,5.9860
2023-03-26T05:52:17.939Z,5.9925
2023-03-26T05:54:22.261Z,6.0074
2023-03-26T05:55:24.508Z,6.0153
2023-03-26T05:57:28.892Z,6.0279
2023-03-26T05:58:31.139Z,6.0341
2023-03-26T05:59:33.349Z,6.0380
2023-03-26T06:00:35.509Z,6.0403
2023-03-26T06:01:37.711Z,6.0430
2023-03-26T06:02:39.911Z,6.0462
2023-03-26T06:03:42.168Z,6.0476
2023-03-26T06:04:44.393Z,6.0481
2023-03-26T06:05:46.623Z,6.0478
2023-03-26T06:06:48.787Z,6.0486
2023-03-26T06:07:51.033Z,6.0495
2023-03-26T06:09:01.395Z,6.0509
2023-03-26T06:09:56.867Z,6.0542
2023-03-26T06:10:59.043Z,6.0594
2023-03-26T06:12:01.220Z,6.0679
2023-03-26T06:13:03.490Z,6.0813
2023-03-26T06:14:05.709Z,6.1005
2023-03-26T06:15:07.860Z,6.1189
2023-03-26T06:16:10.134Z,6.1352
2023-03-26T06:17:13.746Z,6.1503
2023-03-26T06:18:15.984Z,6.1629
2023-03-26T06:19:18.122Z,6.1729
2023-03-26T06:20:20.341Z,6.1808
2023-03-26T06:21:22.611Z,6.1865
2023-03-26T06:22:24.839Z,6.1931
2023-03-26T06:23:27.019Z,6.1981
2023-03-26T06:24:29.161Z,6.2025
2023-03-26T06:25:31.355Z,6.2071
2023-03-26T06:26:33.563Z,6.2119
2023-03-26T06:27:35.763Z,6.2147
2023-03-26T06:28:37.935Z,6.2188
2023-03-26T06:29:40.150Z,6.2221
2023-03-26T06:30:42.339Z,6.2267
2023-03-26T06:31:44.563Z,6.2313
2023-03-26T06:32:46.792Z,6.2337
2023-03-26T06:33:48.999Z,6.2376
2023-03-26T06:34:51.234Z,6.2419
2023-03-26T06:35:53.432Z,6.2482
2023-03-26T06:36:55.625Z,6.2576
2023-03-26T06:37:57.803Z,6.2683
2023-03-26T06:40:02.012Z,6.2985
2023-03-26T06:41:04.238Z,6.3102
2023-03-26T06:42:06.452Z,6.3209
2023-03-26T06:43:10.941Z,6.3295
2023-03-26T06:44:09.093Z,6.3354
2023-03-26T06:45:11.312Z,6.3398
2023-03-26T06:46:13.552Z,6.3433
2023-03-26T06:47:15.787Z,6.3465
2023-03-26T06:48:18.019Z,6.3496
2023-03-26T06:49:20.180Z,6.3509
2023-03-26T06:50:22.452Z,6.3528
2023-03-26T06:51:24.642Z,6.3551
2023-03-26T06:52:26.873Z,6.3574
2023-03-26T06:53:29.024Z,6.3575
2023-03-26T06:54:31.288Z,6.3595
2023-03-26T06:55:33.557Z,6.3611
2023-03-26T06:56:35.729Z,6.3620
2023-03-26T06:57:37.964Z,6.3623
2023-03-26T06:58:40.233Z,6.3595
2023-03-26T06:59:42.412Z,6.3583
2023-03-26T07:00:44.731Z,6.3593
2023-03-26T07:01:46.924Z,6.3627
2023-03-26T07:02:49.128Z,6.3673
2023-03-26T07:03:51.333Z,6.3709
2023-03-26T07:04:53.522Z,6.3736
2023-03-26T07:05:55.745Z,6.3778
2023-03-26T07:06:57.970Z,6.3847
2023-03-26T07:08:00.160Z,6.3904
2023-03-26T07:10:04.417Z,6.4066
2023-03-26T07:11:06.681Z,6.4165
2023-03-26T07:12:08.863Z,6.4235
2023-03-26T07:13:11.157Z,6.4303
2023-03-26T07:14:13.383Z,6.4332
2023-03-26T07:15:15.577Z,6.4322
2023-03-26T07:16:17.789Z,6.4285
2023-03-26T07:17:19.962Z,6.4230
2023-03-26T07:18:22.199Z,6.4186
2023-03-26T07:19:24.337Z,6.4191
2023-03-26T07:21:28.608Z,6.4296
2023-03-26T07:22:30.809Z,6.4351
2023-03-26T07:23:33.169Z,6.4403
2023-03-26T07:24:35.373Z,6.4463
2023-03-26T07:25:37.606Z,6.4504
2023-03-26T07:26:39.792Z,6.4543
2023-03-26T07:27:42.021Z,6.4575
2023-03-26T07:28:44.230Z,6.4625
2023-03-26T07:29:47.949Z,6.4673
2023-03-26T07:30:50.088Z,6.4719
2023-03-26T07:31:52.530Z,6.4770
2023-03-26T07:32:54.775Z,6.4846
2023-03-26T07:33:56.957Z,6.4954
2023-03-26T07:34:59.190Z,6.5042
2023-03-26T07:36:01.370Z,6.5129
2023-03-26T07:37:03.637Z,6.5189
2023-03-26T07:38:05.853Z,6.5253
2023-03-26T07:39:08.012Z,6.5312
2023-03-26T07:40:10.261Z,6.5338
2023-03-26T07:42:14.513Z,6.5337
2023-03-26T07:43:16.668Z,6.5291
2023-03-26T07:44:18.877Z,6.5253
2023-03-26T07:45:21.082Z,6.5288
2023-03-26T07:46:23.307Z,6.5414
2023-03-26T07:48:27.654Z,6.5699
2023-03-26T07:49:29.868Z,6.5806
2023-03-26T07:50:32.077Z,6.5901
2023-03-26T07:51:34.272Z,6.6023
2023-03-26T07:52:36.499Z,6.6167
2023-03-26T07:53:38.721Z,6.6283
2023-03-26T07:54:41.026Z,6.6376
2023-03-26T07:55:43.223Z,6.6466
2023-03-26T07:56:45.558Z,6.6579
2023-03-26T07:57:47.771Z,6.6700
2023-03-26T07:58:49.912Z,6.6837
2023-03-26T08:02:58.330Z,6.7626
2023-03-26T08:05:02.756Z,6.8043
2023-03-26T08:06:05.176Z,6.8199
2023-03-26T08:07:07.343Z,6.8312
2023-03-26T08:08:09.558Z,6.8369
2023-03-26T08:09:11.742Z,6.8376
2023-03-26T08:10:13.932Z,6.8388
2023-03-26T08:12:18.130Z,6.8418
2023-03-26T08:13:20.370Z,6.8487
2023-03-26T08:14:22.572Z,6.8561
2023-03-26T08:15:24.750Z,6.8658
2023-03-26T08:17:30.647Z,6.8900
2023-03-26T08:18:29.226Z,6.8993
2023-03-26T08:19:31.453Z,6.9014
2023-03-26T08:20:33.607Z,6.8998
2023-03-26T08:21:35.837Z,6.8930
2023-03-26T08:22:37.959Z,6.8825
2023-03-26T08:23:50.371Z,6.8699
2023-03-26T08:24:43.833Z,6.8508
2023-03-26T08:25:46.061Z,6.8338
2023-03-26T08:26:48.220Z,6.8209
2023-03-26T08:27:50.448Z,6.8139
2023-03-26T08:28:52.581Z,6.8088
2023-03-26T08:29:54.761Z,6.8040
2023-03-26T08:30:57.317Z,6.7981
2023-03-26T08:32:00.024Z,6.7918
2023-03-26T08:34:04.215Z,6.7835
2023-03-26T08:35:06.421Z,6.7793
2023-03-26T08:37:10.696Z,6.7731
2023-03-26T08:38:12.889Z,6.7768
2023-03-26T08:39:15.009Z,6.7796
2023-03-26T08:41:19.229Z,6.7952
2023-03-26T08:43:23.505Z,6.8345
2023-03-26T08:44:25.703Z,6.8685
2023-03-26T08:45:27.976Z,6.9138
2023-03-26T08:46:30.159Z,6.9679
2023-03-26T08:47:32.329Z,7.0169
2023-03-26T08:48:34.625Z,7.0661
2023-03-26T08:49:36.823Z,7.1164
2023-03-26T08:50:38.977Z,7.1674
2023-03-26T08:51:41.103Z,7.2219
2023-03-26T08:52:43.332Z,7.2776
2023-03-26T08:53:45.467Z,7.3279
2023-03-26T08:54:47.695Z,7.3806
2023-03-26T08:55:49.832Z,7.4260
2023-03-26T08:57:54.074Z,7.4793
2023-03-26T08:58:56.286Z,7.4918
2023-03-26T08:59:59.278Z,7.4975
2023-03-26T09:00:58.489Z,7.4971
2023-03-26T09:02:00.735Z,7.4903
2023-03-26T09:03:02.900Z,7.4773
2023-03-26T09:04:05.108Z,7.4585
2023-03-26T09:05:07.405Z,7.4300
2023-03-26T09:06:09.515Z,7.3928
2023-03-26T09:07:11.738Z,7.3513
2023-03-26T09:09:19.153Z,7.2685
2023-03-26T09:10:17.419Z,7.2267
2023-03-26T09:11:19.627Z,7.1932
2023-03-26T09:12:22.842Z,7.1600
2023-03-26T09:13:23.208Z,7.1291
2023-03-26T09:14:25.373Z,7.1005
2023-03-26T09:15:27.534Z,7.0738
2023-03-26T09:16:29.762Z,7.0499
2023-03-26T09:18:33.959Z,7.0123
2023-03-26T09:19:36.142Z,6.9944
2023-03-26T09:20:38.422Z,6.9847
2023-03-26T09:22:42.683Z,7.0114
2023-03-26T09:23:44.865Z,7.0704
2023-03-26T09:25:49.065Z,7.2661
2023-03-26T09:26:51.277Z,7.4144
2023-03-26T09:27:53.441Z,7.5778
2023-03-26T09:28:55.613Z,7.7445
2023-03-26T09:29:57.772Z,7.9055
2023-03-26T09:30:59.976Z,8.0563
2023-03-26T09:32:02.133Z,8.1844
2023-03-26T09:33:04.324Z,8.2917
2023-03-26T09:34:06.504Z,8.3741
2023-03-26T09:35:08.648Z,8.4383
2023-03-26T09:36:11.225Z,8.4891
2023-03-26T09:37:13.442Z,8.5307
2023-03-26T09:38:15.632Z,8.5612
2023-03-26T09:39:17.802Z,8.5862
2023-03-26T09:40:19.990Z,8.6147
2023-03-26T09:41:22.200Z,8.6404
2023-03-26T09:42:24.394Z,8.6546
2023-03-26T09:44:28.670Z,8.6653
2023-03-26T09:45:30.948Z,8.6615
2023-03-26T09:47:35.182Z,8.6371
2023-03-26T09:48:37.413Z,8.6171
2023-03-26T09:49:39.557Z,8.6063
2023-03-26T09:50:41.778Z,8.6013
2023-03-26T09:51:44.038Z,8.6010
2023-03-26T09:52:46.196Z,8.6117
2023-03-26T09:53:48.355Z,8.6319
2023-03-26T09:54:50.585Z,8.6673
2023-03-26T09:56:54.876Z,8.7555
2023-03-26T09:57:56.994Z,8.7920
2023-03-26T09:58:59.193Z,8.8333
2023-03-26T10:00:01.367Z,8.8870
2023-03-26T10:01:03.636Z,8.9392
2023-03-26T10:02:05.894Z,9.0026
2023-03-26T10:03:08.148Z,9.0689
2023-03-26T10:04:10.373Z,9.1232
2023-03-26T10:05:12.597Z,9.1714
2023-03-26T10:06:14.856Z,9.2177
2023-03-26T10:07:17.020Z,9.2588
2023-03-26T10:08:19.287Z,9.2982
2023-03-26T10:09:21.439Z,9.3398
2023-03-26T10:10:23.654Z,9.3857
2023-03-26T10:11:25.814Z,9.4382
2023-03-26T10:12:28.206Z,9.4942
2023-03-26T10:13:30.497Z,9.5546
2023-03-26T10:14:32.658Z,9.6184
2023-03-26T10:15:34.961Z,9.6927
2023-03-26T10:16:37.301Z,9.7634
2023-03-26T10:17:39.569Z,9.8314
2023-03-26T10:18:41.713Z,9.8862
2023-03-26T10:19:44.236Z,9.9424
2023-03-26T10:20:46.527Z,10.0129
2023-03-26T10:21:48.718Z,10.0769
2023-03-26T10:22:50.977Z,10.1379
2023-03-26T10:23:53.120Z,10.2093
2023-03-26T10:24:55.363Z,10.2798
2023-03-26T10:25:57.673Z,10.3435
2023-03-26T10:27:09.113Z,10.3959
2023-03-26T10:28:03.589Z,10.4374
2023-03-26T10:29:05.824Z,10.4604
2023-03-26T10:30:08.014Z,10.4695
2023-03-26T10:31:10.179Z,10.4730
2023-03-26T10:32:12.452Z,10.4766
2023-03-26T10:33:14.891Z,10.4809
2023-03-26T10:34:28.659Z,10.4885
2023-03-26T10:35:20.833Z,10.5043
2023-03-26T10:37:25.153Z,10.5202
2023-03-26T10:38:27.385Z,10.5177
2023-03-26T10:39:37.216Z,10.5203
2023-03-26T10:40:33.265Z,10.5256
2023-03-26T10:41:35.498Z,10.5298
2023-03-26T10:42:37.641Z,10.5261
2023-03-26T10:43:39.829Z,10.5161
2023-03-26T10:44:42.048Z,10.5040
2023-03-26T10:45:44.340Z,10.4946
2023-03-26T10:46:46.715Z,10.4851
2023-03-26T10:47:49.129Z,10.4741
2023-03-26T10:49:53.310Z,10.4725
2023-03-26T10:50:55.785Z,10.4775
2023-03-26T10:51:58.872Z,10.4765
2023-03-26T10:53:01.083Z,10.4756
2023-03-26T10:54:03.500Z,10.4896
2023-03-26T10:55:05.695Z,10.5116
2023-03-26T10:56:07.948Z,10.5372
2023-03-26T10:57:10.317Z,10.5617
2023-03-26T10:58:12.494Z,10.5881
2023-03-26T10:59:15.057Z,10.6293
2023-03-26T11:00:17.516Z,10.6666
2023-03-26T11:01:19.790Z,10.7050
2023-03-26T11:02:29.299Z,10.7461
2023-03-26T11:03:25.937Z,10.8071
2023-03-26T11:04:28.082Z,10.8728
2023-03-26T11:05:30.366Z,10.9394
2023-03-26T11:06:32.629Z,11.0051
2023-03-26T11:07:34.821Z,11.0575
2023-03-26T11:08:36.950Z,11.1025
2023-03-26T11:09:39.207Z,11.1277
2023-03-26T11:10:41.411Z,11.1390
2023-03-26T11:11:43.932Z,11.1399
2023-03-26T11:12:46.180Z,11.1340
2023-03-26T11:13:48.361Z,11.1317
2023-03-26T11:14:50.628Z,11.1433
2023-03-26T11:15:53.046Z,11.1686
2023-03-26T11:16:55.387Z,11.1960
2023-03-26T11:17:57.614Z,11.2226
2023-03-26T11:18:59.754Z,11.2547
2023-03-26T11:20:01.953Z,11.2935
2023-03-26T11:21:19.106Z,11.3387
2023-03-26T11:22:07.964Z,11.4010
2023-03-26T11:23:10.100Z,11.4795
2023-03-26T11:24:13.264Z,11.5537
2023-03-26T11:25:15.418Z,11.6166
2023-03-26T11:26:17.690Z,11.6620
2023-03-26T11:27:21.323Z,11.6933
2023-03-26T11:28:21.140Z,11.7059
2023-03-26T11:29:32.297Z,11.7031
2023-03-26T11:30:26.917Z,11.6946
2023-03-26T11:31:29.243Z,11.6907
2023-03-26T11:32:31.513Z,11.6915
2023-03-26T11:33:33.619Z,11.7005
2023-03-26T11:34:35.822Z,11.7262
2023-03-26T11:35:40.625Z,11.7707
2023-03-26T11:36:39.150Z,11.8278
2023-03-26T11:37:41.324Z,11.8640
2023-03-26T11:39:45.581Z,11.9088
2023-03-26T11:40:47.680Z,11.9089
2023-03-26T11:41:49.880Z,11.8993
2023-03-26T11:42:52.045Z,11.8941
2023-03-26T11:43:54.368Z,11.8977
2023-03-26T11:44:56.794Z,11.9093
2023-03-26T11:45:59.131Z,11.9349
2023-03-26T11:47:01.370Z,11.9762
2023-03-26T11:48:03.571Z,12.0227
2023-03-26T11:49:05.719Z,12.0732
2023-03-26T11:52:12.000Z,12.1938
2023-03-26T11:53:14.183Z,12.2375
2023-03-26T11:54:16.405Z,12.3024
2023-03-26T11:55:18.608Z,12.3853
2023-03-26T11:56:20.837Z,12.4795
2023-03-26T11:57:23.067Z,12.5641
2023-03-26T11:58:25.261Z,12.6173
2023-03-26T11:59:27.421Z,12.6519
2023-03-26T12:01:31.792Z,12.7325
2023-03-26T12:02:34.156Z,12.8184
2023-03-26T12:04:38.524Z,13.1710
2023-03-26T12:05:40.692Z,13.3922
2023-03-26T12:06:42.794Z,13.5242
2023-03-26T12:07:44.913Z,13.5737
2023-03-26T12:08:47.093Z,13.5928
2023-03-26T12:09:49.246Z,13.5713
2023-03-26T12:10:51.427Z,13.4960
2023-03-26T12:11:53.635Z,13.3836
2023-03-26T12:12:55.822Z,13.2542
2023-03-26T12:13:58.046Z,13.1138
2023-03-26T12:15:00.204Z,12.9591
2023-03-26T12:16:02.357Z,12.7922
2023-03-26T12:17:04.623Z,12.6162
2023-03-26T12:18:27.757Z,12.4536
2023-03-26T12:19:07.848Z,12.2822
2023-03-26T12:20:09.962Z,12.1442
2023-03-26T12:21:12.248Z,11.9764
2023-03-26T12:22:14.409Z,11.8067
2023-03-26T12:23:16.707Z,11.6515
2023-03-26T12:24:18.966Z,11.5073
2023-03-26T12:25:21.181Z,11.3739
2023-03-26T12:26:23.357Z,11.2498
2023-03-26T12:27:25.511Z,11.1247
2023-03-26T12:28:27.660Z,11.0012
2023-03-26T12:29:29.807Z,10.8802
2023-03-26T12:30:32.068Z,10.7622
2023-03-26T12:31:34.270Z,10.6482
2023-03-26T12:32:45.868Z,10.5334
2023-03-26T12:33:40.220Z,10.3911
2023-03-26T12:34:42.434Z,10.1854
2023-03-26T12:35:44.695Z,9.9464
2023-03-26T12:36:46.950Z,9.7465
2023-03-26T12:39:16.731Z,9.4948
2023-03-26T12:40:09.271Z,9.4478
2023-03-26T12:40:58.524Z,9.4570
2023-03-26T12:47:56.670Z,10.4517
2023-03-26T12:47:58.583Z,10.5695
2023-03-26T12:48:16.177Z,10.6461
2023-03-26T12:49:18.934Z,10.6953
2023-03-26T12:50:34.436Z,10.7466
2023-03-26T12:51:24.900Z,11.0081
2023-03-26T12:52:27.053Z,11.3777
2023-03-26T12:54:31.285Z,12.1601
2023-03-26T12:55:33.443Z,12.5234
2023-03-26T12:57:37.991Z,13.2426
2023-03-26T12:59:42.148Z,13.9919
2023-03-26T13:00:44.259Z,14.3474
2023-03-26T13:01:46.347Z,14.6883
2023-03-26T13:02:48.611Z,14.9999
2023-03-26T13:03:52.824Z,15.1929
2023-03-26T13:05:05.050Z,15.1937
2023-03-26T13:05:58.580Z,15.2351
2023-03-26T13:07:02.268Z,15.3538
2023-03-26T13:08:04.722Z,15.3165
2023-03-26T13:09:06.922Z,15.2147
2023-03-26T13:10:09.216Z,15.0623
2023-03-26T13:11:11.464Z,14.8740
2023-03-26T13:12:13.758Z,14.6326
2023-03-26T13:13:15.881Z,14.3627
2023-03-26T13:14:18.113Z,14.0869
2023-03-26T13:15:20.326Z,13.8176
2023-03-26T13:16:22.505Z,13.5741
2023-03-26T13:17:24.893Z,13.3533
2023-03-26T13:18:27.038Z,13.1847
2023-03-26T13:19:29.221Z,13.0682
2023-03-26T13:20:31.430Z,12.9762
2023-03-26T13:21:33.630Z,12.9183
2023-03-26T13:22:35.807Z,12.8974
2023-03-26T13:23:37.937Z,13.0287
2023-03-26T13:24:40.233Z,13.2763
2023-03-26T13:25:42.333Z,13.5323
2023-03-26T13:26:44.484Z,13.7411
2023-03-26T13:27:46.586Z,13.8765
2023-03-26T13:30:52.918Z,14.1274
2023-03-26T13:31:55.352Z,14.0304
2023-03-26T13:32:57.573Z,13.9004
2023-03-26T13:33:59.765Z,13.7461
2023-03-26T13:35:01.966Z,13.5873
2023-03-26T13:36:21.768Z,13.4314
2023-03-26T13:37:07.746Z,13.2722
2023-03-26T13:39:12.002Z,12.9763
2023-03-26T13:40:14.193Z,12.8215
2023-03-26T13:42:18.516Z,12.5113
2023-03-26T13:43:20.626Z,12.3601
2023-03-26T13:44:22.806Z,12.2082
2023-03-26T13:45:24.945Z,12.0554
2023-03-26T13:46:27.208Z,11.9056
2023-03-26T13:47:29.344Z,11.7648
2023-03-26T13:48:31.527Z,11.6395
2023-03-26T13:49:33.709Z,11.5199
2023-03-26T13:50:35.911Z,11.4068
2023-03-26T13:51:38.161Z,11.3100
2023-03-26T13:52:40.387Z,11.2169
2023-03-26T13:53:42.525Z,11.1230
2023-03-26T13:54:44.791Z,11.0175
2023-03-26T13:55:46.943Z,10.8915
2023-03-26T13:56:49.180Z,10.7469
2023-03-26T13:57:51.380Z,10.5972
2023-03-26T13:58:53.628Z,10.4477
2023-03-26T13:59:55.763Z,10.3058
2023-03-26T14:00:58.256Z,10.1640
2023-03-26T14:02:00.962Z,10.0103
2023-03-26T14:04:05.291Z,9.7103